Time;durP1;ratioP1;P1;durP2;ratioP2;P2;SDS_P1;SDS_P2;PMS_P1;PMS_P2;Temp;Humidity;BMP_temperature;BMP_pressure;BME280_temperature;BME280_humidity;BME280_pressure;Samples;Min_cycle;Max_cycle;Signal;HPM_P1;HPM_P2
2021/07/23 00:00:37;;;;;;;54.08;26.30;;;;;;;;;;5094333;28;20479;-81
2021/07/23 00:03:03;;;;;;;47.72;24.58;;;;;;;;;;5094193;28;20024;-81
2021/07/23 00:05:28;;;;;;;43.75;23.55;;;;;;;;;;5094180;28;20023;-81
2021/07/23 00:07:53;;;;;;;57.28;27.25;;;;;;;;;;5094142;28;20020;-81
2021/07/23 00:10:18;;;;;;;43.78;25.02;;;;;;;;;;5093936;28;20434;-81
2021/07/23 00:12:44;;;;;;;44.15;24.65;;;;;;;;;;5094318;28;20032;-81
2021/07/23 00:15:09;;;;;;;49.85;24.38;;;;;;;;;;5094008;28;20032;-81
2021/07/23 00:17:34;;;;;;;48.72;25.10;;;;;;;;;;5094035;28;20059;-81
2021/07/23 00:20:00;;;;;;;41.70;23.90;;;;;;;;;;5093869;28;20047;-81
2021/07/23 00:22:25;;;;;;;55.15;27.35;;;;;;;;;;5093823;28;20460;-81
2021/07/23 00:24:50;;;;;;;54.78;27.90;;;;;;;;;;5093896;28;20035;-81
2021/07/23 00:27:16;;;;;;;50.75;26.77;;;;;;;;;;5093954;28;20431;-81
2021/07/23 00:29:41;;;;;;;65.38;29.60;;;;;;;;;;5093843;28;20072;-81
2021/07/23 00:32:07;;;;;;;54.15;26.98;;;;;;;;;;5093592;28;20043;-81
2021/07/23 00:34:32;;;;;;;50.03;25.50;;;;;;;;;;5093687;28;20047;-81
2021/07/23 00:36:57;;;;;;;65.55;28.63;;;;;;;;;;5093960;28;20092;-81
2021/07/23 00:39:22;;;;;;;66.10;29.52;;;;;;;;;;5093240;28;20088;-81
2021/07/23 00:41:48;;;;;;;53.15;27.40;;;;;;;;;;5093640;28;20016;-81
2021/07/23 00:44:13;;;;;;;49.80;24.73;;;;;;;;;;5093296;28;20101;-81
2021/07/23 00:46:39;;;;;;;52.20;25.25;;;;;;;;;;5093042;28;20028;-81
2021/07/23 00:49:05;;;;;;;40.80;22.95;;;;;;;;;;5093630;28;20020;-81
2021/07/23 00:51:30;;;;;;;50.03;25.25;;;;;;;;;;5093243;28;20031;-81
2021/07/23 00:53:56;;;;;;;55.30;27.13;;;;;;;;;;5093560;28;20036;-81
2021/07/23 00:56:21;;;;;;;53.75;26.50;;;;;;;;;;5093162;28;20020;-81
2021/07/23 00:58:46;;;;;;;75.03;30.23;;;;;;;;;;5093563;28;20064;-81
2021/07/23 01:01:12;;;;;;;48.50;25.23;;;;;;;;;;5093656;28;20028;-81
2021/07/23 01:03:37;;;;;;;54.60;26.83;;;;;;;;;;5093532;28;20024;-81
2021/07/23 01:06:03;;;;;;;54.42;26.40;;;;;;;;;;5093543;28;20026;-82
2021/07/23 01:08:28;;;;;;;59.75;27.45;;;;;;;;;;5093440;28;20437;-80
2021/07/23 01:10:54;;;;;;;62.75;28.88;;;;;;;;;;5092066;28;20027;-81
2021/07/23 01:13:19;;;;;;;48.13;25.35;;;;;;;;;;5093240;28;20047;-81
2021/07/23 01:15:44;;;;;;;54.55;28.00;;;;;;;;;;5093440;28;20032;-81
2021/07/23 01:18:10;;;;;;;55.85;26.65;;;;;;;;;;5093185;28;20020;-81
2021/07/23 01:20:35;;;;;;;56.33;28.88;;;;;;;;;;5093399;28;20048;-81
2021/07/23 01:23:01;;;;;;;55.55;27.13;;;;;;;;;;5093314;28;20452;-81
2021/07/23 01:25:27;;;;;;;52.28;26.55;;;;;;;;;;5092955;28;20024;-81
2021/07/23 01:27:54;;;;;;;58.53;28.42;;;;;;;;;;5092875;28;20046;-81
2021/07/23 01:30:23;;;;;;;63.53;28.70;;;;;;;;;;5093033;28;20028;-80
2021/07/23 01:32:49;;;;;;;51.03;26.60;;;;;;;;;;5092218;28;20032;-81
2021/07/23 01:35:14;;;;;;;56.03;25.52;;;;;;;;;;5093073;28;20426;-81
2021/07/23 01:37:40;;;;;;;55.10;28.33;;;;;;;;;;5093117;28;20028;-80
2021/07/23 01:40:06;;;;;;;60.35;29.35;;;;;;;;;;5092777;28;20027;-81
2021/07/23 01:42:32;;;;;;;58.55;28.13;;;;;;;;;;5092750;28;20036;-80
2021/07/23 01:44:57;;;;;;;62.33;29.60;;;;;;;;;;5092935;28;20047;-81
2021/07/23 01:47:22;;;;;;;62.67;29.95;;;;;;;;;;5092981;28;20023;-80
2021/07/23 01:49:48;;;;;;;58.17;27.00;;;;;;;;;;5093011;28;20024;-81
2021/07/23 01:52:13;;;;;;;64.93;28.65;;;;;;;;;;5092816;28;20032;-81
2021/07/23 01:54:39;;;;;;;65.80;30.48;;;;;;;;;;5092986;28;20020;-81
2021/07/23 01:57:04;;;;;;;63.40;29.30;;;;;;;;;;5092983;28;20020;-81
2021/07/23 01:59:30;;;;;;;71.32;30.48;;;;;;;;;;5096194;28;20392;-81
2021/07/23 02:01:56;;;;;;;63.55;27.92;;;;;;;;;;5096081;28;20016;-81
2021/07/23 02:04:22;;;;;;;75.22;32.35;;;;;;;;;;5096373;28;20020;-81
2021/07/23 02:06:47;;;;;;;56.13;28.80;;;;;;;;;;5096231;28;20042;-81
2021/07/23 02:09:12;;;;;;;49.65;25.50;;;;;;;;;;5094705;28;20107;-81
2021/07/23 02:11:37;;;;;;;66.30;28.40;;;;;;;;;;5096422;28;20024;-81
2021/07/23 02:14:06;;;;;;;60.25;28.35;;;;;;;;;;5096188;28;20528;-81
2021/07/23 02:16:32;;;;;;;69.68;30.33;;;;;;;;;;5096248;28;20073;-81
2021/07/23 02:18:57;;;;;;;62.88;29.05;;;;;;;;;;5096474;28;20036;-81
2021/07/23 02:21:22;;;;;;;70.32;31.08;;;;;;;;;;5096274;28;20396;-81
2021/07/23 02:23:47;;;;;;;66.35;30.17;;;;;;;;;;5096082;28;20020;-80
2021/07/23 02:26:17;;;;;;;71.00;31.33;;;;;;;;;;5095954;28;20524;-80
2021/07/23 02:28:42;;;;;;;62.88;29.00;;;;;;;;;;5095994;28;20028;-81
2021/07/23 02:31:07;;;;;;;70.53;30.10;;;;;;;;;;5095942;28;20030;-81
2021/07/23 02:33:33;;;;;;;75.15;30.70;;;;;;;;;;5095765;28;20040;-81
2021/07/23 02:35:58;;;;;;;61.95;29.48;;;;;;;;;;5095968;28;20036;-80
2021/07/23 02:38:23;;;;;;;60.15;27.88;;;;;;;;;;5095739;28;20052;-81
2021/07/23 02:40:49;;;;;;;65.15;29.67;;;;;;;;;;5095288;28;20373;-80
2021/07/23 02:43:14;;;;;;;80.38;33.20;;;;;;;;;;5095581;28;20498;-81
2021/07/23 02:45:39;;;;;;;74.90;31.08;;;;;;;;;;5094341;28;20024;-80
2021/07/23 02:48:05;;;;;;;71.60;31.23;;;;;;;;;;5095638;28;20027;-81
2021/07/23 02:50:30;;;;;;;68.95;29.60;;;;;;;;;;5095532;28;20069;-81
2021/07/23 02:52:56;;;;;;;77.43;32.28;;;;;;;;;;5095577;28;20447;-80
2021/07/23 02:55:21;;;;;;;62.75;30.20;;;;;;;;;;5095698;28;20031;-81
2021/07/23 02:57:46;;;;;;;67.70;31.45;;;;;;;;;;5095452;28;20089;-80
2021/07/23 03:00:12;;;;;;;83.43;34.05;;;;;;;;;;5095584;28;20028;-81
2021/07/23 03:02:37;;;;;;;87.50;33.47;;;;;;;;;;5095312;28;20052;-81
2021/07/23 03:05:02;;;;;;;69.47;30.98;;;;;;;;;;5093998;28;20063;-80
2021/07/23 03:07:28;;;;;;;67.40;31.00;;;;;;;;;;5095239;28;20403;-81
2021/07/23 03:09:53;;;;;;;82.00;32.78;;;;;;;;;;5094411;28;20020;-80
2021/07/23 03:12:18;;;;;;;78.65;31.75;;;;;;;;;;5095007;28;20032;-81
2021/07/23 03:14:44;;;;;;;85.78;34.80;;;;;;;;;;5094761;28;20027;-80
2021/07/23 03:17:10;;;;;;;70.28;29.70;;;;;;;;;;5095023;28;20161;-81
2021/07/23 03:19:36;;;;;;;77.30;32.70;;;;;;;;;;5094875;28;20047;-81
2021/07/23 03:22:01;;;;;;;74.57;30.98;;;;;;;;;;5094993;28;20164;-80
2021/07/23 03:24:26;;;;;;;77.95;31.88;;;;;;;;;;5094885;28;20130;-81
2021/07/23 03:26:51;;;;;;;67.30;30.60;;;;;;;;;;5094835;28;20039;-80
2021/07/23 03:29:17;;;;;;;76.25;32.60;;;;;;;;;;5094988;28;20060;-81
2021/07/23 03:31:42;;;;;;;62.95;29.20;;;;;;;;;;5094790;28;20118;-81
2021/07/23 03:34:07;;;;;;;98.78;34.50;;;;;;;;;;5094595;28;20047;-81
2021/07/23 03:36:32;;;;;;;89.03;33.25;;;;;;;;;;5094752;28;20452;-80
2021/07/23 03:38:58;;;;;;;68.07;29.98;;;;;;;;;;5094802;28;20115;-80
2021/07/23 03:41:23;;;;;;;69.22;30.88;;;;;;;;;;5094561;28;20429;-81
2021/07/23 03:43:48;;;;;;;73.80;32.53;;;;;;;;;;5094490;28;20020;-80
2021/07/23 03:46:14;;;;;;;71.97;31.63;;;;;;;;;;5093658;28;20521;-80
2021/07/23 03:48:39;;;;;;;73.18;30.23;;;;;;;;;;5094533;28;20028;-80
2021/07/23 03:51:04;;;;;;;84.20;32.63;;;;;;;;;;5094495;28;20027;-81
2021/07/23 03:53:29;;;;;;;96.97;34.95;;;;;;;;;;5094215;28;20040;-80
2021/07/23 03:55:55;;;;;;;76.43;30.77;;;;;;;;;;5094405;28;20035;-80
2021/07/23 03:58:20;;;;;;;92.47;33.25;;;;;;;;;;5094166;28;20448;-80
2021/07/23 04:00:45;;;;;;;68.13;30.35;;;;;;;;;;5094362;28;20028;-80
2021/07/23 04:03:10;;;;;;;77.88;32.50;;;;;;;;;;5094089;28;20073;-81
2021/07/23 04:05:36;;;;;;;90.53;33.13;;;;;;;;;;5093867;28;20028;-80
2021/07/23 04:08:01;;;;;;;82.78;32.83;;;;;;;;;;5094101;28;20031;-80
2021/07/23 04:10:26;;;;;;;81.43;33.42;;;;;;;;;;5093646;28;20067;-80
2021/07/23 04:12:52;;;;;;;73.28;31.60;;;;;;;;;;5093728;28;20028;-80
2021/07/23 04:15:18;;;;;;;90.25;32.83;;;;;;;;;;5093968;28;20028;-80
2021/07/23 04:17:43;;;;;;;71.43;32.35;;;;;;;;;;5092652;28;20502;-80
2021/07/23 04:20:08;;;;;;;88.15;33.50;;;;;;;;;;5092677;28;20051;-80
2021/07/23 04:22:34;;;;;;;70.95;31.15;;;;;;;;;;5093854;28;20065;-80
2021/07/23 04:24:59;;;;;;;65.70;30.25;;;;;;;;;;5093892;28;20054;-79
2021/07/23 04:27:24;;;;;;;94.10;34.03;;;;;;;;;;5093675;28;20072;-80
2021/07/23 04:29:50;;;;;;;75.78;32.67;;;;;;;;;;5093802;28;20081;-80
2021/07/23 04:32:15;;;;;;;78.40;31.10;;;;;;;;;;5093635;28;20039;-80
2021/07/23 04:34:41;;;;;;;92.45;33.38;;;;;;;;;;5093610;28;20089;-80
2021/07/23 04:37:06;;;;;;;68.55;29.85;;;;;;;;;;5093790;28;20058;-80
2021/07/23 04:39:31;;;;;;;90.70;33.65;;;;;;;;;;5093632;28;20059;-80
2021/07/23 04:41:57;;;;;;;75.97;30.38;;;;;;;;;;5093407;28;20099;-80
2021/07/23 04:44:22;;;;;;;70.15;28.23;;;;;;;;;;5093603;28;20031;-81
2021/07/23 04:46:47;;;;;;;107.97;35.75;;;;;;;;;;5093721;28;20028;-80
2021/07/23 04:49:12;;;;;;;74.03;29.52;;;;;;;;;;5093209;28;20052;-81
2021/07/23 04:51:38;;;;;;;68.25;28.38;;;;;;;;;;5093517;28;20032;-80
2021/07/23 04:54:03;;;;;;;58.30;27.08;;;;;;;;;;5093472;28;20417;-80
2021/07/23 04:56:28;;;;;;;77.57;30.63;;;;;;;;;;5093468;28;20102;-80
2021/07/23 04:58:54;;;;;;;80.00;29.83;;;;;;;;;;5093453;28;20028;-80
2021/07/23 05:01:19;;;;;;;58.60;25.95;;;;;;;;;;5093329;28;20028;-80
2021/07/23 05:03:44;;;;;;;70.55;26.55;;;;;;;;;;5093497;28;20095;-80
2021/07/23 05:06:10;;;;;;;53.35;25.92;;;;;;;;;;5093334;28;20039;-81
2021/07/23 05:08:36;;;;;;;88.97;30.27;;;;;;;;;;5093463;28;20448;-80
2021/07/23 05:11:02;;;;;;;53.38;25.40;;;;;;;;;;5093310;28;20016;-80
2021/07/23 05:13:30;;;;;;;69.10;27.77;;;;;;;;;;5093215;28;20040;-80
2021/07/23 05:15:56;;;;;;;60.65;26.02;;;;;;;;;;5092067;28;20565;-80
2021/07/23 05:18:22;;;;;;;60.72;25.75;;;;;;;;;;5093252;28;20095;-80
2021/07/23 05:20:47;;;;;;;55.30;23.80;;;;;;;;;;5093305;28;20079;-80
2021/07/23 05:23:12;;;;;;;53.88;23.30;;;;;;;;;;5093221;28;20121;-81
2021/07/23 05:25:38;;;;;;;62.70;24.25;;;;;;;;;;5093278;28;20020;-81
2021/07/23 05:28:04;;;;;;;55.65;21.88;;;;;;;;;;5093201;28;20034;-81
2021/07/23 05:30:29;;;;;;;47.63;20.63;;;;;;;;;;5093116;28;20034;-81
2021/07/23 05:32:54;;;;;;;37.75;18.77;;;;;;;;;;5096028;28;20107;-81
2021/07/23 05:35:19;;;;;;;37.20;18.92;;;;;;;;;;5096901;28;20408;-81
2021/07/23 05:37:45;;;;;;;39.47;18.50;;;;;;;;;;5097158;28;20032;-81
2021/07/23 05:40:11;;;;;;;23.40;14.30;;;;;;;;;;5096599;28;20012;-82
2021/07/23 05:42:37;;;;;;;29.10;14.73;;;;;;;;;;5096978;28;20069;-81
2021/07/23 05:45:02;;;;;;;21.65;13.95;;;;;;;;;;5096892;28;20024;-81
2021/07/23 05:47:28;;;;;;;19.38;12.25;;;;;;;;;;5096441;28;20024;-81
2021/07/23 05:49:53;;;;;;;16.73;11.65;;;;;;;;;;5096808;28;20024;-81
2021/07/23 05:52:19;;;;;;;14.60;9.02;;;;;;;;;;5096544;28;20032;-81
2021/07/23 05:54:44;;;;;;;12.93;8.88;;;;;;;;;;5096785;28;20024;-81
2021/07/23 05:57:09;;;;;;;12.85;8.70;;;;;;;;;;5096624;28;20028;-81
2021/07/23 05:59:34;;;;;;;13.98;8.32;;;;;;;;;;5096617;28;20024;-81
2021/07/23 06:02:00;;;;;;;15.85;8.55;;;;;;;;;;5096601;28;20422;-81
2021/07/23 06:04:25;;;;;;;10.57;8.45;;;;;;;;;;5096518;28;20024;-81
2021/07/23 06:06:50;;;;;;;13.10;8.52;;;;;;;;;;5096416;28;20111;-81
2021/07/23 06:09:16;;;;;;;11.93;7.95;;;;;;;;;;5096440;28;20095;-81
2021/07/23 06:11:41;;;;;;;9.82;7.47;;;;;;;;;;5096314;28;20028;-81
2021/07/23 06:14:07;;;;;;;10.85;7.88;;;;;;;;;;5096277;28;20044;-81
2021/07/23 06:16:32;;;;;;;10.73;8.20;;;;;;;;;;5096169;28;20074;-81
2021/07/23 06:18:58;;;;;;;10.65;7.30;;;;;;;;;;5096268;28;20039;-81
2021/07/23 06:21:24;;;;;;;11.63;7.53;;;;;;;;;;5096284;28;20055;-81
2021/07/23 06:23:49;;;;;;;10.80;7.57;;;;;;;;;;5096223;28;20024;-81
2021/07/23 06:26:15;;;;;;;11.02;7.22;;;;;;;;;;5096015;28;20039;-82
2021/07/23 06:28:40;;;;;;;10.00;7.13;;;;;;;;;;5095970;28;20035;-80
2021/07/23 06:31:05;;;;;;;9.18;7.32;;;;;;;;;;5096100;28;20030;-81
2021/07/23 06:33:31;;;;;;;10.30;7.50;;;;;;;;;;5095838;28;20036;-81
2021/07/23 06:35:56;;;;;;;9.32;7.43;;;;;;;;;;5093625;28;20046;-82
2021/07/23 06:38:21;;;;;;;10.20;6.85;;;;;;;;;;5095842;28;20020;-82
2021/07/23 06:40:47;;;;;;;8.75;6.38;;;;;;;;;;5095888;28;20391;-82
2021/07/23 06:43:12;;;;;;;9.52;7.13;;;;;;;;;;5094883;28;20097;-82
2021/07/23 06:45:38;;;;;;;11.07;7.07;;;;;;;;;;5095917;28;20051;-82
2021/07/23 06:48:03;;;;;;;12.18;6.68;;;;;;;;;;5095688;28;20028;-82
2021/07/23 06:50:31;;;;;;;9.80;7.00;;;;;;;;;;5095299;28;20028;-82
2021/07/23 06:52:56;;;;;;;10.07;6.95;;;;;;;;;;5095533;28;20355;-82
2021/07/23 06:55:22;;;;;;;9.95;6.53;;;;;;;;;;5095442;28;20112;-82
2021/07/23 06:57:47;;;;;;;12.32;7.78;;;;;;;;;;5095390;28;20036;-82
2021/07/23 07:00:12;;;;;;;12.23;8.32;;;;;;;;;;5093964;28;20047;-82
2021/07/23 07:02:38;;;;;;;12.02;8.35;;;;;;;;;;5095563;28;20020;-82
2021/07/23 07:05:03;;;;;;;9.75;7.88;;;;;;;;;;5094994;28;20032;-82
2021/07/23 07:07:28;;;;;;;12.98;7.93;;;;;;;;;;5094965;28;20031;-82
2021/07/23 07:09:54;;;;;;;12.35;9.18;;;;;;;;;;5094843;28;20032;-82
2021/07/23 07:12:19;;;;;;;8.73;6.55;;;;;;;;;;5095031;28;20036;-82
2021/07/23 07:14:45;;;;;;;9.60;6.90;;;;;;;;;;5094442;28;20022;-83
2021/07/23 07:17:10;;;;;;;13.05;7.65;;;;;;;;;;5095334;28;20028;-82
2021/07/23 07:19:35;;;;;;;11.65;7.40;;;;;;;;;;5094556;28;20034;-82
2021/07/23 07:22:01;;;;;;;9.10;6.55;;;;;;;;;;5094949;28;20414;-83
2021/07/23 07:24:26;;;;;;;11.65;7.63;;;;;;;;;;5094836;28;20035;-81
2021/07/23 07:26:52;;;;;;;11.60;7.47;;;;;;;;;;5094537;28;20432;-81
2021/07/23 07:29:17;;;;;;;12.95;9.73;;;;;;;;;;5094846;28;20023;-80
2021/07/23 07:31:43;;;;;;;14.32;11.05;;;;;;;;;;5094822;28;20024;-81
2021/07/23 07:34:08;;;;;;;14.75;9.13;;;;;;;;;;5094783;28;20040;-82
2021/07/23 07:36:34;;;;;;;13.98;9.50;;;;;;;;;;5094642;28;20024;-82
2021/07/23 07:38:59;;;;;;;13.77;9.18;;;;;;;;;;5094451;28;20495;-81
2021/07/23 07:41:26;;;;;;;16.40;10.25;;;;;;;;;;5093938;28;20028;-82
2021/07/23 07:43:51;;;;;;;17.38;9.15;;;;;;;;;;5094245;28;20024;-81
2021/07/23 07:46:16;;;;;;;13.20;9.32;;;;;;;;;;5095503;28;20036;-82
2021/07/23 07:48:42;;;;;;;12.75;9.57;;;;;;;;;;5084630;28;20118;-84
2021/07/23 07:51:08;;;;;;;11.77;8.63;;;;;;;;;;5084496;28;20031;-83
2021/07/23 07:53:34;;;;;;;19.48;9.52;;;;;;;;;;5081787;28;20383;-82
2021/07/23 07:55:59;;;;;;;13.38;9.18;;;;;;;;;;5095307;28;20107;-83
2021/07/23 07:58:24;;;;;;;11.50;8.87;;;;;;;;;;5095540;28;20133;-83
2021/07/23 08:00:49;;;;;;;13.27;8.77;;;;;;;;;;5092832;28;20260;-83
2021/07/23 08:03:15;;;;;;;11.38;8.82;;;;;;;;;;5092630;28;20277;-83
2021/07/23 08:05:40;;;;;;;12.38;8.23;;;;;;;;;;5094025;28;20530;-83
2021/07/23 08:08:09;;;;;;;12.30;8.67;;;;;;;;;;5083362;28;20028;-85
2021/07/23 08:10:36;;;;;;;10.90;7.53;;;;;;;;;;5073592;28;20269;-83
2021/07/23 08:13:01;;;;;;;13.98;8.20;;;;;;;;;;5074564;28;20675;-83
2021/07/23 08:15:26;;;;;;;12.00;7.30;;;;;;;;;;5093020;28;20166;-83
2021/07/23 08:17:52;;;;;;;13.07;8.17;;;;;;;;;;5094017;28;20028;-83
2021/07/23 08:20:17;;;;;;;13.27;8.35;;;;;;;;;;5093164;28;20612;-81
2021/07/23 08:22:43;;;;;;;13.07;8.52;;;;;;;;;;5093125;28;20040;-83
2021/07/23 08:25:09;;;;;;;13.77;9.00;;;;;;;;;;5093043;28;20400;-82
2021/07/23 08:27:35;;;;;;;13.15;9.02;;;;;;;;;;5093556;28;20023;-82
2021/07/23 08:30:02;;;;;;;10.27;8.00;;;;;;;;;;5093670;28;20024;-82
2021/07/23 08:32:31;;;;;;;14.80;9.77;;;;;;;;;;5093477;28;20289;-82
2021/07/23 08:34:56;;;;;;;13.05;8.95;;;;;;;;;;5093661;28;20476;-82
2021/07/23 08:37:22;;;;;;;16.38;8.57;;;;;;;;;;5093676;28;20102;-82
2021/07/23 08:39:47;;;;;;;11.10;8.15;;;;;;;;;;5093044;28;20028;-82
2021/07/23 08:42:25;;;;;;;11.20;7.73;;;;;;;;;;5093089;28;20067;-82
2021/07/23 08:44:51;;;;;;;10.05;8.38;;;;;;;;;;5084230;28;20253;-83
2021/07/23 08:47:16;;;;;;;13.60;8.05;;;;;;;;;;5087154;28;20093;-83
2021/07/23 08:49:41;;;;;;;13.48;8.52;;;;;;;;;;5089491;28;20020;-82
2021/07/23 08:52:06;;;;;;;11.45;8.00;;;;;;;;;;5089995;28;20040;-82
2021/07/23 08:54:32;;;;;;;16.03;9.10;;;;;;;;;;5089668;28;20020;-82
2021/07/23 08:56:58;;;;;;;11.55;8.65;;;;;;;;;;5090228;28;20309;-83
2021/07/23 08:59:23;;;;;;;13.38;8.02;;;;;;;;;;5079706;28;20474;-85
2021/07/23 09:01:58;;;;;;;13.70;8.63;;;;;;;;;;5089567;28;20036;-83
2021/07/23 09:04:30;;;;;;;10.25;8.05;;;;;;;;;;5089851;28;20032;-84
2021/07/23 09:07:14;;;;;;;12.52;8.02;;;;;;;;;;5090426;28;20036;-84
2021/07/23 09:09:39;;;;;;;16.40;7.67;;;;;;;;;;5093507;28;20043;-83
2021/07/23 09:12:04;;;;;;;11.73;7.77;;;;;;;;;;5093141;28;20268;-82
2021/07/23 09:14:29;;;;;;;12.23;8.45;;;;;;;;;;5094375;28;20795;-83
2021/07/23 09:16:55;;;;;;;16.93;8.40;;;;;;;;;;5070276;28;20519;-82
2021/07/23 09:19:20;;;;;;;9.85;7.57;;;;;;;;;;5071232;28;20276;-84
2021/07/23 09:21:46;;;;;;;9.17;7.50;;;;;;;;;;5072825;28;20096;-83
2021/07/23 09:24:12;;;;;;;12.05;8.10;;;;;;;;;;5071606;28;20304;-84
2021/07/23 09:26:44;;;;;;;12.35;8.13;;;;;;;;;;5072976;28;20701;-85
2021/07/23 09:29:10;;;;;;;11.45;7.90;;;;;;;;;;5073176;28;20020;-84
2021/07/23 09:31:35;;;;;;;12.77;7.82;;;;;;;;;;5074327;28;20377;-83
2021/07/23 09:34:02;;;;;;;12.40;7.70;;;;;;;;;;5073685;28;20047;-83
2021/07/23 09:36:28;;;;;;;12.60;8.20;;;;;;;;;;5073669;28;20020;-83
2021/07/23 09:39:04;;;;;;;9.63;7.97;;;;;;;;;;5073436;28;20028;-83
2021/07/23 09:41:29;;;;;;;13.73;8.25;;;;;;;;;;5072220;28;20029;-84
2021/07/23 09:44:00;;;;;;;12.10;8.18;;;;;;;;;;5073444;28;20480;-84
2021/07/23 09:46:27;;;;;;;9.95;7.60;;;;;;;;;;5073480;28;20111;-83
2021/07/23 09:48:53;;;;;;;9.93;7.30;;;;;;;;;;5071777;28;20379;-84
2021/07/23 09:51:22;;;;;;;11.55;7.95;;;;;;;;;;5073732;28;20034;-83
2021/07/23 09:53:48;;;;;;;11.68;8.10;;;;;;;;;;5073915;28;20035;-83
2021/07/23 09:56:13;;;;;;;15.52;7.75;;;;;;;;;;5073337;28;20021;-83
2021/07/23 09:58:49;;;;;;;13.07;7.80;;;;;;;;;;5073227;28;20051;-83
2021/07/23 10:01:18;;;;;;;11.82;7.90;;;;;;;;;;5072437;28;20265;-83
2021/07/23 10:03:45;;;;;;;8.35;6.72;;;;;;;;;;5072743;28;20040;-82
2021/07/23 10:06:15;;;;;;;11.45;7.38;;;;;;;;;;5072581;28;20106;-83
2021/07/23 10:08:44;;;;;;;11.10;7.95;;;;;;;;;;5072558;28;20453;-84
2021/07/23 10:11:10;;;;;;;9.50;7.55;;;;;;;;;;5071403;28;20384;-84
2021/07/23 10:13:39;;;;;;;11.77;7.28;;;;;;;;;;5073014;28;20062;-83
2021/07/23 10:16:05;;;;;;;10.40;7.20;;;;;;;;;;5072969;28;20017;-84
2021/07/23 10:18:33;;;;;;;11.57;8.43;;;;;;;;;;5072170;28;20028;-85
2021/07/23 10:20:58;;;;;;;11.05;8.43;;;;;;;;;;5071625;28;20056;-84
2021/07/23 10:23:24;;;;;;;11.00;7.82;;;;;;;;;;5072787;28;20039;-84
2021/07/23 10:25:50;;;;;;;11.57;7.93;;;;;;;;;;5071412;28;20064;-83
2021/07/23 10:28:34;;;;;;;10.73;8.10;;;;;;;;;;5082452;28;20391;-84
2021/07/23 10:30:59;;;;;;;11.45;9.15;;;;;;;;;;5092418;28;20464;-83
2021/07/23 10:33:48;;;;;;;10.93;9.10;;;;;;;;;;5091545;28;20043;-83
2021/07/23 10:36:25;;;;;;;14.20;8.05;;;;;;;;;;5081360;28;20752;-84
2021/07/23 10:39:13;;;;;;;11.15;8.23;;;;;;;;;;5091311;28;20436;-83
2021/07/23 10:41:38;;;;;;;12.35;7.85;;;;;;;;;;5093142;28;20024;-84
2021/07/23 10:44:04;;;;;;;11.82;7.03;;;;;;;;;;5092498;28;20051;-83
2021/07/23 10:46:45;;;;;;;10.48;8.02;;;;;;;;;;5092615;28;20016;-83
2021/07/23 10:49:11;;;;;;;15.38;9.00;;;;;;;;;;5093000;28;20387;-83
2021/07/23 10:51:45;;;;;;;9.52;6.88;;;;;;;;;;5092366;28;20035;-83
2021/07/23 10:54:11;;;;;;;18.10;9.63;;;;;;;;;;5092361;28;20054;-82
2021/07/23 10:57:00;;;;;;;11.48;8.13;;;;;;;;;;5092515;28;20476;-83
2021/07/23 10:59:38;;;;;;;11.35;8.07;;;;;;;;;;5092225;28;20028;-82
2021/07/23 11:02:03;;;;;;;13.13;8.07;;;;;;;;;;5092213;28;20047;-83
2021/07/23 11:04:29;;;;;;;11.77;8.27;;;;;;;;;;5091410;28;20488;-83
2021/07/23 11:06:58;;;;;;;12.50;8.32;;;;;;;;;;5092339;28;20039;-84
2021/07/23 11:09:23;;;;;;;10.73;7.80;;;;;;;;;;5092600;28;20020;-82
2021/07/23 11:11:49;;;;;;;14.00;7.65;;;;;;;;;;5092389;28;20032;-83
2021/07/23 11:14:15;;;;;;;14.07;7.35;;;;;;;;;;5091370;28;20032;-82
2021/07/23 11:16:40;;;;;;;10.38;7.00;;;;;;;;;;5091909;28;20016;-82
2021/07/23 11:19:06;;;;;;;9.38;7.22;;;;;;;;;;5091653;28;20030;-82
2021/07/23 11:21:35;;;;;;;10.57;7.15;;;;;;;;;;5091846;28;20407;-84
2021/07/23 11:24:01;;;;;;;13.80;7.60;;;;;;;;;;5092023;28;20071;-83
2021/07/23 11:26:26;;;;;;;15.02;7.63;;;;;;;;;;5090360;28;20063;-82
2021/07/23 11:28:53;;;;;;;17.67;8.48;;;;;;;;;;5091608;28;20039;-83
2021/07/23 11:31:32;;;;;;;12.02;7.57;;;;;;;;;;5091029;28;20020;-83
2021/07/23 11:33:58;;;;;;;12.32;7.05;;;;;;;;;;5091838;28;20031;-83
2021/07/23 11:36:33;;;;;;;14.38;8.07;;;;;;;;;;5091520;28;20077;-83
2021/07/23 11:39:17;;;;;;;13.85;8.40;;;;;;;;;;5090843;28;20493;-83
2021/07/23 11:41:58;;;;;;;11.13;7.63;;;;;;;;;;5091128;28;20118;-82
2021/07/23 11:44:23;;;;;;;13.18;8.02;;;;;;;;;;5091268;28;20036;-82
2021/07/23 11:46:48;;;;;;;12.18;7.90;;;;;;;;;;5087620;28;20100;-83
2021/07/23 11:49:13;;;;;;;9.93;7.63;;;;;;;;;;5091581;28;20423;-85
2021/07/23 11:51:40;;;;;;;9.48;6.68;;;;;;;;;;5091501;28;20111;-84
2021/07/23 11:54:06;;;;;;;12.68;7.00;;;;;;;;;;5091314;28;20419;-83
2021/07/23 11:56:32;;;;;;;14.73;7.10;;;;;;;;;;5091269;28;20020;-82
2021/07/23 11:58:58;;;;;;;11.57;7.38;;;;;;;;;;5089927;28;20384;-82
2021/07/23 12:01:26;;;;;;;12.15;7.13;;;;;;;;;;5090889;28;20027;-82
2021/07/23 12:03:57;;;;;;;13.20;6.72;;;;;;;;;;5090866;28;20470;-83
2021/07/23 12:06:26;;;;;;;11.05;6.32;;;;;;;;;;5090891;28;20085;-82
2021/07/23 12:08:53;;;;;;;10.75;6.45;;;;;;;;;;5091555;28;20111;-83
2021/07/23 12:11:19;;;;;;;12.15;6.10;;;;;;;;;;5091248;28;20111;-84
2021/07/23 12:13:44;;;;;;;12.40;6.22;;;;;;;;;;5088783;28;20028;-82
2021/07/23 12:16:09;;;;;;;9.68;6.30;;;;;;;;;;5090710;28;20028;-82
2021/07/23 12:18:35;;;;;;;12.25;5.93;;;;;;;;;;5088669;28;20452;-82
2021/07/23 12:21:09;;;;;;;8.80;5.80;;;;;;;;;;5090865;28;20182;-84
2021/07/23 12:23:35;;;;;;;12.73;5.28;;;;;;;;;;5090717;28;20036;-82
2021/07/23 12:26:00;;;;;;;13.32;6.28;;;;;;;;;;5091698;28;20043;-82
2021/07/23 12:28:25;;;;;;;11.77;5.60;;;;;;;;;;5088963;28;20020;-82
2021/07/23 12:30:51;;;;;;;10.80;5.13;;;;;;;;;;5090446;28;20588;-82
2021/07/23 12:33:17;;;;;;;8.00;5.13;;;;;;;;;;5089783;28;20028;-83
2021/07/23 12:35:58;;;;;;;10.40;5.80;;;;;;;;;;5090612;28;20046;-84
2021/07/23 12:38:26;;;;;;;9.30;6.00;;;;;;;;;;5090389;28;20062;-83
2021/07/23 12:41:02;;;;;;;8.18;5.43;;;;;;;;;;5090191;28;20032;-83
2021/07/23 12:43:27;;;;;;;11.18;5.60;;;;;;;;;;5090273;28;20043;-84
2021/07/23 12:45:53;;;;;;;9.35;6.20;;;;;;;;;;5090195;28;20028;-83
2021/07/23 12:48:20;;;;;;;9.23;6.10;;;;;;;;;;5090346;28;20035;-83
2021/07/23 12:50:58;;;;;;;13.00;5.82;;;;;;;;;;5089264;28;20172;-84
2021/07/23 12:53:25;;;;;;;13.15;6.20;;;;;;;;;;5090058;28;20032;-83
2021/07/23 12:55:57;;;;;;;9.13;5.80;;;;;;;;;;5090150;28;20036;-84
2021/07/23 12:58:38;;;;;;;10.88;5.53;;;;;;;;;;5089962;28;20535;-83
2021/07/23 13:01:10;;;;;;;16.17;5.68;;;;;;;;;;5090218;28;20106;-83
2021/07/23 13:03:36;;;;;;;12.40;5.97;;;;;;;;;;5090046;28;20036;-82
2021/07/23 13:06:01;;;;;;;8.65;5.75;;;;;;;;;;5090050;28;20066;-84
2021/07/23 13:08:29;;;;;;;13.18;6.50;;;;;;;;;;5089588;28;20124;-83
2021/07/23 13:10:54;;;;;;;8.25;6.00;;;;;;;;;;5090762;28;20036;-83
2021/07/23 13:13:20;;;;;;;8.57;6.15;;;;;;;;;;5090380;28;20073;-84
2021/07/23 13:15:45;;;;;;;10.05;5.93;;;;;;;;;;5090142;28;20036;-83
2021/07/23 13:18:10;;;;;;;10.98;5.80;;;;;;;;;;5090122;28;20059;-83
2021/07/23 13:20:35;;;;;;;16.00;7.07;;;;;;;;;;5089795;28;20044;-83
2021/07/23 13:23:01;;;;;;;10.68;5.53;;;;;;;;;;5090541;28;20452;-83
2021/07/23 13:25:26;;;;;;;11.55;5.72;;;;;;;;;;5090419;28;20169;-83
2021/07/23 13:27:51;;;;;;;9.52;5.75;;;;;;;;;;5089715;28;20017;-83
2021/07/23 13:30:19;;;;;;;18.23;7.20;;;;;;;;;;5089972;28;20028;-83
2021/07/23 13:32:45;;;;;;;10.48;5.65;;;;;;;;;;5089732;28;20532;-82
2021/07/23 13:35:11;;;;;;;12.85;6.03;;;;;;;;;;5089742;28;20089;-83
2021/07/23 13:37:41;;;;;;;10.48;5.90;;;;;;;;;;5090558;28;20052;-83
2021/07/23 13:40:08;;;;;;;9.65;5.28;;;;;;;;;;5090600;28;20043;-83
2021/07/23 13:42:34;;;;;;;9.63;5.72;;;;;;;;;;5089524;28;20537;-83
2021/07/23 13:45:00;;;;;;;10.23;5.47;;;;;;;;;;5089377;28;20063;-83
2021/07/23 13:47:26;;;;;;;10.23;5.88;;;;;;;;;;5090392;28;20047;-82
2021/07/23 13:49:51;;;;;;;8.52;5.60;;;;;;;;;;5089918;28;20039;-83
2021/07/23 13:52:16;;;;;;;14.65;5.75;;;;;;;;;;5089778;28;20132;-83
2021/07/23 13:54:42;;;;;;;10.43;5.15;;;;;;;;;;5093768;28;20036;-83
2021/07/23 13:57:07;;;;;;;11.48;5.32;;;;;;;;;;5093626;28;20024;-82
2021/07/23 13:59:32;;;;;;;10.50;5.53;;;;;;;;;;5092882;28;20024;-83
2021/07/23 14:01:58;;;;;;;14.35;5.90;;;;;;;;;;5093059;28;20067;-83
2021/07/23 14:04:23;;;;;;;12.27;5.82;;;;;;;;;;5092986;28;20051;-83
2021/07/23 14:06:48;;;;;;;14.63;5.75;;;;;;;;;;5093576;28;20475;-83
2021/07/23 14:09:14;;;;;;;7.78;4.85;;;;;;;;;;5093721;28;20058;-84
2021/07/23 14:11:42;;;;;;;7.90;4.35;;;;;;;;;;5093083;28;20466;-83
2021/07/23 14:14:07;;;;;;;11.23;5.35;;;;;;;;;;5092876;28;20433;-83
2021/07/23 14:16:33;;;;;;;10.88;6.32;;;;;;;;;;5093053;28;20027;-83
2021/07/23 14:18:58;;;;;;;9.48;5.03;;;;;;;;;;5093594;28;20016;-83
2021/07/23 14:21:23;;;;;;;11.77;4.88;;;;;;;;;;5093362;28;20052;-82